createdAt,value
2023-05-02T00:00:46.133Z,21.00
2023-05-02T00:03:17.497Z,20.00
2023-05-02T00:05:45.973Z,23.00
2023-05-02T00:08:14.012Z,22.00
2023-05-02T00:10:42.520Z,21.50
2023-05-02T00:13:10.775Z,21.00
2023-05-02T00:15:38.816Z,20.00
2023-05-02T00:18:06.905Z,23.00
2023-05-02T00:20:35.597Z,19.50
2023-05-02T00:23:03.881Z,18.00
2023-05-02T00:25:31.941Z,21.50
2023-05-02T00:30:32.919Z,23.00
2023-05-02T00:33:00.943Z,22.00
2023-05-02T00:35:29.731Z,23.00
2023-05-02T00:37:59.903Z,21.00
2023-05-02T00:40:28.108Z,22.00
2023-05-02T00:42:56.947Z,23.00
2023-05-02T00:45:25.006Z,24.00
2023-05-02T00:47:53.138Z,24.00
2023-05-02T00:50:21.516Z,26.00
2023-05-02T00:52:49.658Z,21.00
2023-05-02T00:55:18.330Z,25.00
2023-05-02T00:57:46.507Z,20.00
2023-05-02T01:00:15.527Z,18.50
2023-05-02T01:02:53.648Z,22.00
2023-05-02T01:05:34.166Z,21.00
2023-05-02T01:08:26.226Z,23.50
2023-05-02T01:11:17.212Z,22.00
2023-05-02T01:13:47.138Z,17.00
2023-05-02T01:16:19.020Z,18.00
2023-05-02T01:18:49.519Z,15.00
2023-05-02T01:21:18.542Z,18.00
2023-05-02T01:24:01.415Z,18.50
2023-05-02T01:26:42.082Z,16.00
2023-05-02T01:29:14.431Z,15.00
2023-05-02T01:31:46.819Z,19.00
2023-05-02T01:34:19.066Z,21.00
2023-05-02T01:36:50.497Z,16.00
2023-05-02T01:39:22.506Z,19.00
2023-05-02T01:41:53.605Z,18.00
2023-05-02T01:44:23.608Z,20.00
2023-05-02T01:46:54.523Z,17.00
2023-05-02T01:49:24.659Z,18.00
2023-05-02T01:51:53.684Z,22.50
2023-05-02T01:54:24.756Z,16.67
2023-05-02T01:56:53.235Z,23.00
2023-05-02T01:59:24.429Z,25.00
2023-05-02T02:01:53.973Z,19.00
2023-05-02T02:04:24.766Z,21.00
2023-05-02T02:06:58.478Z,17.00
2023-05-02T02:09:27.228Z,21.00
2023-05-02T02:12:12.811Z,20.00
2023-05-02T02:14:46.415Z,22.50
2023-05-02T02:17:26.814Z,16.50
2023-05-02T02:19:57.369Z,19.00
2023-05-02T02:22:28.385Z,13.50
2023-05-02T02:24:58.624Z,15.00
2023-05-02T02:27:27.149Z,18.50
2023-05-02T02:29:56.088Z,18.00
2023-05-02T02:32:24.768Z,21.00
2023-05-02T02:34:52.956Z,22.00
2023-05-02T02:37:48.522Z,20.00
2023-05-02T02:40:27.292Z,18.00
2023-05-02T02:43:07.285Z,22.00
2023-05-02T02:45:56.223Z,17.00
2023-05-02T02:48:30.554Z,22.50
2023-05-02T02:51:14.940Z,18.50
2023-05-02T02:54:05.947Z,19.00
2023-05-02T02:56:45.945Z,16.50
2023-05-02T02:59:29.141Z,17.00
2023-05-02T03:02:07.877Z,13.00
2023-05-02T03:04:41.274Z,16.00
2023-05-02T03:07:10.863Z,18.00
2023-05-02T03:09:50.165Z,17.00
2023-05-02T03:12:21.360Z,15.00
2023-05-02T03:14:50.291Z,17.00
2023-05-02T03:17:18.643Z,15.00
2023-05-02T03:19:47.468Z,12.00
2023-05-02T03:22:16.206Z,14.00
2023-05-02T03:24:44.295Z,11.00
2023-05-02T03:27:12.899Z,12.50
2023-05-02T03:29:41.993Z,14.00
2023-05-02T03:32:10.808Z,15.00
2023-05-02T03:34:39.801Z,15.00
2023-05-02T03:37:10.811Z,14.00
2023-05-02T03:39:59.757Z,14.00
2023-05-02T03:42:27.997Z,13.00
2023-05-02T03:44:56.784Z,11.33
2023-05-02T03:47:26.588Z,9.00
2023-05-02T03:49:54.792Z,13.50
2023-05-02T03:52:23.706Z,12.00
2023-05-02T03:54:55.415Z,14.00
2023-05-02T03:57:23.464Z,12.00
2023-05-02T03:59:51.821Z,12.00
2023-05-02T04:02:25.552Z,13.50
2023-05-02T04:04:53.877Z,11.50
2023-05-02T04:07:25.915Z,14.50
2023-05-02T04:10:04.443Z,13.00
2023-05-02T04:12:37.435Z,13.00
2023-05-02T04:15:08.358Z,10.00
2023-05-02T04:17:36.871Z,13.00
2023-05-02T04:20:06.999Z,10.00
2023-05-02T04:22:37.161Z,12.00
2023-05-02T04:25:07.801Z,11.00
2023-05-02T04:27:38.639Z,12.00
2023-05-02T04:30:10.798Z,12.50
2023-05-02T04:32:40.376Z,10.50
2023-05-02T04:35:10.201Z,13.00
2023-05-02T04:40:07.430Z,12.00
2023-05-02T04:42:38.157Z,11.00
2023-05-02T04:45:16.038Z,12.50
2023-05-02T04:47:46.314Z,13.00
2023-05-02T04:50:14.708Z,15.00
2023-05-02T04:52:42.820Z,14.50
2023-05-02T04:55:10.859Z,15.50
2023-05-02T04:57:40.235Z,12.00
2023-05-02T05:00:11.796Z,13.00
2023-05-02T05:02:40.937Z,10.00
2023-05-02T05:05:10.523Z,12.00
2023-05-02T05:07:38.663Z,13.00
2023-05-02T05:10:08.607Z,9.00
2023-05-02T05:12:42.588Z,11.00
2023-05-02T05:15:12.015Z,11.50
2023-05-02T05:17:42.482Z,14.50
2023-05-02T05:20:11.275Z,10.00
2023-05-02T05:22:41.649Z,10.50
2023-05-02T05:25:12.221Z,15.50
2023-05-02T05:27:40.698Z,11.00
2023-05-02T05:30:12.813Z,12.50
2023-05-02T05:32:42.618Z,9.00
2023-05-02T05:35:21.380Z,11.00
2023-05-02T05:37:55.092Z,10.00
2023-05-02T05:40:23.522Z,10.00
2023-05-02T05:42:56.314Z,7.00
2023-05-02T05:45:29.225Z,7.00
2023-05-02T05:47:58.829Z,7.00
2023-05-02T05:50:28.998Z,6.50
2023-05-02T05:52:57.481Z,7.00
2023-05-02T05:55:30.716Z,7.00
2023-05-02T05:57:58.901Z,7.00
2023-05-02T06:00:27.276Z,6.00
2023-05-02T06:02:55.481Z,8.00
2023-05-02T06:05:29.045Z,6.00
2023-05-02T06:07:57.658Z,6.00
2023-05-02T06:10:26.067Z,7.50
2023-05-02T06:12:54.477Z,6.00
2023-05-02T06:15:26.611Z,6.00
2023-05-02T06:17:54.959Z,8.00
2023-05-02T06:20:23.270Z,5.00
2023-05-02T06:22:51.304Z,7.00
2023-05-02T06:25:19.404Z,5.00
2023-05-02T06:27:47.574Z,5.00
2023-05-02T06:30:15.593Z,6.00
2023-05-02T06:32:44.319Z,6.00
2023-05-02T06:35:12.761Z,7.00
2023-05-02T06:37:40.867Z,6.00
2023-05-02T06:40:10.171Z,7.00
2023-05-02T06:42:38.160Z,6.00
2023-05-02T06:45:06.582Z,6.00
2023-05-02T06:47:34.716Z,6.00
2023-05-02T06:50:07.749Z,6.00
2023-05-02T06:52:36.114Z,5.00
2023-05-02T06:56:07.292Z,4.00
2023-05-02T06:58:38.249Z,4.00
2023-05-02T07:01:20.041Z,5.50
2023-05-02T07:03:55.455Z,4.00
2023-05-02T07:06:33.948Z,2.50
2023-05-02T07:09:22.638Z,3.00
2023-05-02T07:11:57.455Z,3.00
2023-05-02T07:14:25.675Z,5.00
2023-05-02T07:16:55.877Z,7.50
2023-05-02T07:19:24.998Z,6.50
2023-05-02T07:21:53.902Z,5.33
2023-05-02T07:24:22.045Z,5.00
2023-05-02T07:26:50.611Z,6.00
2023-05-02T07:29:21.976Z,6.00
2023-05-02T07:32:07.950Z,4.00
2023-05-02T07:34:35.905Z,5.00
2023-05-02T07:37:03.873Z,4.00
2023-05-02T07:39:33.369Z,3.50
2023-05-02T07:42:01.433Z,5.00
2023-05-02T07:44:29.391Z,4.00
2023-05-02T07:46:57.411Z,4.00
2023-05-02T07:49:25.345Z,4.00
2023-05-02T07:51:53.228Z,3.50
2023-05-02T07:54:22.656Z,3.00
2023-05-02T07:56:50.724Z,4.00
2023-05-02T07:59:18.653Z,1.00
2023-05-02T08:01:46.549Z,4.00
2023-05-02T08:04:14.719Z,0.00
2023-05-02T08:06:45.445Z,2.50
2023-05-02T08:09:13.397Z,3.00
2023-05-02T08:11:42.435Z,2.00
2023-05-02T08:14:10.570Z,4.00
2023-05-02T08:16:38.961Z,4.00
2023-05-02T08:19:06.996Z,3.00
2023-05-02T08:21:35.460Z,2.00
2023-05-02T08:24:03.529Z,3.00
2023-05-02T08:26:31.469Z,3.00
2023-05-02T08:28:59.865Z,2.00
2023-05-02T08:31:27.849Z,2.00
2023-05-02T08:33:56.182Z,3.00
2023-05-02T08:36:25.263Z,2.00
2023-05-02T08:38:53.202Z,2.00
2023-05-02T08:41:22.380Z,3.00
2023-05-02T08:43:50.427Z,3.00
2023-05-02T08:46:18.406Z,3.50
2023-05-02T08:48:49.663Z,3.00
2023-05-02T08:53:49.446Z,5.50
2023-05-02T08:56:17.756Z,3.00
2023-05-02T08:58:47.339Z,4.00
2023-05-02T09:01:18.050Z,3.00
2023-05-02T09:03:47.836Z,3.50
2023-05-02T09:06:21.267Z,2.00
2023-05-02T09:08:52.538Z,3.00
2023-05-02T09:11:21.486Z,3.00
2023-05-02T09:13:51.839Z,5.00
2023-05-02T09:16:25.706Z,4.50
2023-05-02T09:18:58.754Z,6.00
2023-05-02T09:21:36.026Z,4.00
2023-05-02T09:24:17.325Z,3.00
2023-05-02T09:27:05.823Z,6.00
2023-05-02T09:29:38.986Z,6.00
2023-05-02T09:32:07.765Z,7.00
2023-05-02T09:34:37.514Z,3.00
2023-05-02T09:37:06.412Z,4.50
2023-05-02T09:39:34.764Z,6.00
2023-05-02T09:42:03.600Z,6.50
2023-05-02T09:44:38.427Z,4.67
2023-05-02T09:47:08.724Z,5.00
2023-05-02T09:49:46.641Z,5.50
2023-05-02T09:52:21.763Z,4.50
2023-05-02T09:54:53.341Z,7.00
2023-05-02T09:57:22.012Z,6.00
2023-05-02T09:59:57.556Z,4.00
2023-05-02T10:02:26.275Z,7.00
2023-05-02T10:04:58.553Z,10.00
2023-05-02T10:07:27.226Z,7.50
2023-05-02T10:10:00.867Z,5.00
2023-05-02T10:12:32.820Z,8.00
2023-05-02T10:15:04.519Z,8.00
2023-05-02T10:17:39.818Z,7.00
2023-05-02T10:20:11.186Z,6.00
2023-05-02T10:22:39.718Z,7.50
2023-05-02T10:25:08.379Z,8.00
2023-05-02T10:27:37.767Z,9.50
2023-05-02T10:30:08.592Z,9.00
2023-05-02T10:32:38.175Z,7.00
2023-05-02T10:35:08.271Z,8.50
2023-05-02T10:37:38.867Z,7.00
2023-05-02T10:40:11.693Z,9.00
2023-05-02T10:42:43.254Z,8.50
2023-05-02T10:45:31.985Z,8.00
2023-05-02T10:48:23.166Z,7.50
2023-05-02T10:50:55.133Z,9.00
2023-05-02T10:53:22.982Z,7.50
2023-05-02T10:56:21.916Z,8.00
2023-05-02T10:58:51.504Z,7.00
2023-05-02T11:01:28.709Z,10.00
2023-05-02T11:04:01.021Z,10.00
2023-05-02T11:06:32.622Z,7.00
2023-05-02T11:09:13.819Z,10.00
2023-05-02T11:11:43.626Z,9.00
2023-05-02T11:14:14.065Z,8.50
2023-05-02T11:17:00.779Z,10.00
2023-05-02T11:19:31.739Z,22.00
2023-05-02T11:22:17.687Z,9.50
2023-05-02T11:24:50.200Z,8.50
2023-05-02T11:27:43.496Z,8.50
2023-05-02T11:30:12.840Z,11.00
2023-05-02T11:35:20.324Z,10.00
2023-05-02T11:38:03.937Z,10.00
2023-05-02T11:40:32.455Z,8.33
2023-05-02T11:43:01.292Z,13.00
2023-05-02T11:45:45.533Z,11.00
2023-05-02T11:48:16.115Z,9.00
2023-05-02T11:50:48.595Z,9.00
2023-05-02T11:53:22.348Z,9.00
2023-05-02T11:55:52.642Z,10.00
2023-05-02T11:58:23.037Z,15.00
2023-05-02T12:00:53.536Z,13.00
2023-05-02T12:03:22.595Z,11.00
2023-05-02T12:05:51.728Z,10.00
2023-05-02T12:08:24.123Z,7.00
2023-05-02T12:10:53.956Z,11.00
2023-05-02T12:13:24.294Z,12.00
2023-05-02T12:15:54.493Z,8.50
2023-05-02T12:18:24.720Z,7.00
2023-05-02T12:20:54.687Z,7.00
2023-05-02T12:23:24.769Z,7.00
2023-05-02T12:25:52.708Z,4.00
2023-05-02T12:28:21.088Z,5.00
2023-05-02T12:30:51.017Z,6.00
2023-05-02T12:33:19.400Z,10.50
2023-05-02T12:35:48.132Z,8.33
2023-05-02T12:38:18.896Z,5.50
2023-05-02T12:40:49.082Z,7.00
2023-05-02T12:43:17.184Z,8.50
2023-05-02T12:45:45.488Z,6.00
2023-05-02T12:48:22.208Z,7.00
2023-05-02T12:50:51.375Z,8.50
2023-05-02T12:53:41.653Z,6.67
2023-05-02T12:56:11.498Z,5.50
2023-05-02T12:58:46.658Z,7.00
2023-05-02T13:01:15.642Z,7.00
2023-05-02T13:03:44.512Z,6.00
2023-05-02T13:06:12.716Z,6.00
2023-05-02T13:08:40.748Z,5.00
2023-05-02T13:11:09.211Z,5.00
2023-05-02T13:13:37.235Z,6.00
2023-05-02T13:16:05.558Z,6.00
2023-05-02T13:18:33.624Z,7.00
2023-05-02T13:23:29.427Z,10.50
2023-05-02T13:25:57.290Z,7.00
2023-05-02T13:28:25.975Z,6.00
2023-05-02T13:30:54.024Z,6.00
2023-05-02T13:33:21.905Z,4.00
2023-05-02T13:38:17.618Z,4.00
2023-05-02T13:40:45.601Z,4.00
2023-05-02T13:43:14.715Z,4.00
2023-05-02T13:45:42.764Z,4.00
2023-05-02T13:48:10.890Z,3.33
2023-05-02T13:50:39.184Z,5.00
2023-05-02T13:53:07.055Z,6.00
2023-05-02T13:55:34.919Z,6.00
2023-05-02T13:58:02.943Z,4.50
2023-05-02T14:00:30.876Z,6.00
2023-05-02T14:02:58.788Z,5.00
2023-05-02T14:05:26.904Z,4.00
2023-05-02T14:07:54.786Z,2.00
2023-05-02T14:10:22.698Z,2.00
2023-05-02T14:12:50.674Z,4.00
2023-05-02T14:15:18.898Z,2.00
2023-05-02T14:17:46.802Z,2.00
2023-05-02T14:20:14.682Z,1.00
2023-05-02T14:22:42.522Z,2.00
2023-05-02T14:25:10.546Z,1.00
2023-05-02T14:27:38.449Z,0.00
2023-05-02T14:30:07.397Z,2.00
2023-05-02T14:32:35.337Z,0.00
2023-05-02T14:35:03.484Z,2.00
2023-05-02T14:37:34.313Z,1.00
2023-05-02T14:40:02.458Z,2.00
2023-05-02T14:42:30.844Z,0.50
2023-05-02T14:45:02.321Z,2.00
2023-05-02T14:47:31.277Z,3.00
2023-05-02T14:49:59.578Z,2.00
2023-05-02T14:52:27.840Z,5.00
2023-05-02T14:57:23.736Z,3.50
2023-05-02T14:59:51.758Z,2.00
2023-05-02T15:02:19.825Z,3.00
2023-05-02T15:04:48.219Z,4.00
2023-05-02T15:07:16.562Z,3.00
2023-05-02T15:09:44.738Z,4.00
2023-05-02T15:12:12.745Z,4.50
2023-05-02T15:14:40.756Z,5.00
2023-05-02T15:17:08.680Z,8.00
2023-05-02T15:19:36.663Z,10.00
2023-05-02T15:22:04.592Z,8.00
2023-05-02T15:24:32.508Z,7.00
2023-05-02T15:27:01.045Z,4.50
2023-05-02T15:29:29.014Z,5.00
2023-05-02T15:31:56.983Z,6.00
2023-05-02T15:34:24.871Z,3.00
2023-05-02T15:36:52.795Z,4.00
2023-05-02T15:39:22.754Z,5.00
2023-05-02T15:41:50.909Z,5.00
2023-05-02T15:44:19.341Z,6.00
2023-05-02T15:46:47.353Z,4.00
2023-05-02T15:49:15.419Z,5.00
2023-05-02T15:51:43.822Z,5.00
2023-05-02T15:54:16.862Z,4.00
2023-05-02T15:56:44.757Z,4.00
2023-05-02T15:59:12.607Z,4.00
2023-05-02T16:01:40.547Z,4.50
2023-05-02T16:04:10.052Z,5.50
2023-05-02T16:06:38.422Z,5.00
2023-05-02T16:09:06.750Z,4.00
2023-05-02T16:11:34.978Z,5.00
2023-05-02T16:14:03.048Z,6.00
2023-05-02T16:16:32.690Z,6.00
2023-05-02T16:19:00.908Z,6.50
2023-05-02T16:21:28.833Z,6.00
2023-05-02T16:23:56.710Z,5.00
2023-05-02T16:26:24.544Z,4.00
2023-05-02T16:28:52.529Z,6.00
2023-05-02T16:31:20.778Z,7.00
2023-05-02T16:33:49.359Z,7.00
2023-05-02T16:36:17.492Z,7.00
2023-05-02T16:41:13.461Z,6.67
2023-05-02T16:43:41.427Z,6.00
2023-05-02T16:46:09.317Z,8.50
2023-05-02T16:48:37.240Z,8.00
2023-05-02T16:51:05.477Z,7.50
2023-05-02T16:53:33.332Z,12.50
2023-05-02T16:56:01.364Z,16.00
2023-05-02T16:58:29.398Z,17.00
2023-05-02T17:01:00.282Z,14.00
2023-05-02T17:03:29.674Z,13.00
2023-05-02T17:06:01.984Z,11.00
2023-05-02T17:08:30.563Z,9.50
2023-05-02T17:10:58.596Z,9.00
2023-05-02T17:13:26.552Z,8.00
2023-05-02T17:15:54.519Z,11.00
2023-05-02T17:18:22.491Z,8.00
2023-05-02T17:20:50.662Z,8.00
2023-05-02T17:23:18.803Z,19.50
2023-05-02T17:25:47.676Z,32.00
2023-05-02T17:28:16.056Z,24.00
2023-05-02T17:30:44.008Z,18.50
2023-05-02T17:33:12.131Z,16.00
2023-05-02T17:35:40.155Z,12.50
2023-05-02T17:38:08.139Z,18.00
2023-05-02T17:40:38.124Z,23.00
2023-05-02T17:43:06.433Z,31.00
2023-05-02T17:45:34.493Z,24.00
2023-05-02T17:48:04.007Z,21.00
2023-05-02T17:50:36.742Z,15.00
2023-05-02T17:53:07.443Z,13.00
2023-05-02T17:58:07.116Z,10.00
2023-05-02T18:00:35.149Z,9.00
2023-05-02T18:03:04.201Z,9.00
2023-05-02T18:05:37.728Z,9.50
2023-05-02T18:08:07.602Z,9.00
2023-05-02T18:10:39.147Z,60.00
2023-05-02T18:13:07.545Z,46.00
2023-05-02T18:15:35.474Z,27.00
2023-05-02T18:18:03.514Z,21.00
2023-05-02T18:20:31.473Z,16.00
2023-05-02T18:23:01.390Z,12.00
2023-05-02T18:25:33.470Z,10.00
2023-05-02T18:28:01.533Z,13.00
2023-05-02T18:30:29.469Z,12.00
2023-05-02T18:32:57.379Z,22.00
2023-05-02T18:35:25.376Z,39.00
2023-05-02T18:37:53.679Z,37.00
2023-05-02T18:40:21.676Z,41.00
2023-05-02T18:42:49.597Z,35.00
2023-05-02T18:45:17.815Z,25.00
2023-05-02T18:47:45.776Z,18.00
2023-05-02T18:50:13.622Z,19.00
2023-05-02T18:52:41.434Z,16.00
2023-05-02T18:55:09.528Z,19.00
2023-05-02T18:57:37.548Z,18.67
2023-05-02T19:00:06.561Z,31.00
2023-05-02T19:02:34.756Z,33.00
2023-05-02T19:05:07.583Z,24.00
2023-05-02T19:07:38.515Z,16.00
2023-05-02T19:10:07.127Z,17.00
2023-05-02T19:12:35.005Z,16.50
2023-05-02T19:15:06.772Z,15.00
2023-05-02T19:17:35.265Z,15.00
2023-05-02T19:20:04.012Z,18.00
2023-05-02T19:22:34.826Z,17.00
2023-05-02T19:29:59.643Z,18.50
2023-05-02T19:32:27.815Z,20.00
2023-05-02T19:34:57.047Z,22.00
2023-05-02T19:37:25.098Z,20.00
2023-05-02T19:39:53.673Z,19.00
2023-05-02T19:42:21.775Z,17.00
2023-05-02T19:44:49.976Z,18.00
2023-05-02T19:47:17.962Z,16.50
2023-05-02T19:49:46.267Z,18.50
2023-05-02T19:52:14.156Z,19.00
2023-05-02T19:54:41.976Z,17.00
2023-05-02T19:57:09.903Z,23.00
2023-05-02T19:59:37.880Z,27.00
2023-05-02T20:02:06.541Z,25.00
2023-05-02T20:04:34.495Z,20.00
2023-05-02T20:07:02.478Z,28.00
2023-05-02T20:09:30.638Z,23.00
2023-05-02T20:11:58.506Z,27.00
2023-05-02T20:14:26.645Z,26.00
2023-05-02T20:17:01.364Z,24.50
2023-05-02T20:19:32.277Z,26.00
2023-05-02T20:22:00.421Z,23.50
2023-05-02T20:24:28.256Z,26.00
2023-05-02T20:26:56.117Z,22.00
2023-05-02T20:29:24.865Z,25.00
2023-05-02T20:31:54.440Z,20.00
2023-05-02T20:34:23.636Z,22.00
2023-05-02T20:36:52.645Z,25.00
2023-05-02T20:41:50.012Z,22.50
2023-05-02T20:44:18.824Z,29.00
2023-05-02T20:46:46.710Z,26.50
2023-05-02T20:49:14.688Z,25.00
2023-05-02T20:51:42.484Z,26.00
2023-05-02T20:54:10.793Z,27.00
2023-05-02T20:56:39.338Z,27.00
2023-05-02T20:59:07.404Z,25.00
2023-05-02T21:01:35.549Z,33.00
2023-05-02T21:04:04.167Z,28.50
2023-05-02T21:06:32.774Z,31.00
2023-05-02T21:09:01.957Z,30.50
2023-05-02T21:11:29.963Z,28.50
2023-05-02T21:13:57.871Z,29.50
2023-05-02T21:16:26.149Z,27.50
2023-05-02T21:18:55.004Z,28.00
2023-05-02T21:21:22.978Z,26.00
2023-05-02T21:23:50.985Z,26.00
2023-05-02T21:26:18.975Z,23.00
2023-05-02T21:28:47.081Z,23.00
2023-05-02T21:31:15.143Z,23.00
2023-05-02T21:33:43.091Z,28.00
2023-05-02T21:36:11.362Z,26.00
2023-05-02T21:38:39.200Z,27.00
2023-05-02T21:41:07.175Z,20.00
2023-05-02T21:43:38.444Z,24.00
2023-05-02T21:46:06.738Z,21.50
2023-05-02T21:48:34.658Z,23.00
2023-05-02T21:51:09.551Z,19.00
2023-05-02T21:53:38.241Z,23.00
2023-05-02T21:56:07.769Z,19.50
2023-05-02T21:58:36.130Z,25.50
2023-05-02T22:01:04.506Z,23.00
2023-05-02T22:03:34.428Z,22.00
2023-05-02T22:06:06.457Z,22.00
2023-05-02T22:08:34.878Z,22.00
2023-05-02T22:11:10.253Z,23.00
2023-05-02T22:13:38.229Z,22.00
2023-05-02T22:16:08.284Z,21.00
2023-05-02T22:18:37.075Z,18.00
2023-05-02T22:21:05.027Z,18.00
2023-05-02T22:23:32.822Z,21.00
2023-05-02T22:26:01.070Z,19.50
2023-05-02T22:28:29.205Z,18.00
2023-05-02T22:30:57.088Z,16.00
2023-05-02T22:33:25.202Z,17.00
2023-05-02T22:35:53.188Z,16.00
2023-05-02T22:38:21.053Z,14.00
2023-05-02T22:40:49.010Z,15.00
2023-05-02T22:43:17.508Z,19.00
2023-05-02T22:45:45.644Z,17.00
2023-05-02T22:48:13.438Z,21.00
2023-05-02T22:50:43.143Z,21.00
2023-05-02T22:53:11.226Z,18.00
2023-05-02T22:55:39.233Z,18.00
2023-05-02T22:58:07.089Z,22.00
2023-05-02T23:00:34.928Z,22.00
2023-05-02T23:03:03.242Z,17.00
2023-05-02T23:05:31.395Z,20.00
2023-05-02T23:07:59.339Z,21.00
2023-05-02T23:10:27.600Z,17.50
2023-05-02T23:12:56.150Z,15.00
2023-05-02T23:15:24.387Z,18.00
2023-05-02T23:17:52.326Z,15.50
2023-05-02T23:20:22.804Z,15.00
2023-05-02T23:22:51.316Z,15.00
2023-05-02T23:25:20.040Z,11.00
2023-05-02T23:27:47.881Z,16.00
2023-05-02T23:30:15.860Z,17.50
2023-05-02T23:32:44.075Z,16.00
2023-05-02T23:35:12.427Z,22.00
2023-05-02T23:37:41.169Z,17.00
2023-05-02T23:40:09.350Z,20.00
2023-05-02T23:42:40.436Z,15.00
2023-05-02T23:45:09.287Z,16.50
2023-05-02T23:47:38.107Z,18.00
2023-05-02T23:50:06.689Z,14.00
2023-05-02T23:52:34.518Z,13.00
2023-05-02T23:55:02.653Z,14.50
2023-05-02T23:57:30.724Z,14.50
2023-05-02T23:59:58.565Z,16.00
